datoshorarios_respira

Este recurso contiene el identificador de cada estación RESPIRA y todos sus datos dinámicos para cada hora. No contiene el resto de atributos estáticos.

RESPIRA FIWARE es un dispositivo abierto IoT diseñado para monitorizar temperatura ambiente, humedad relativa y concentraciones de NO2 y de partículas en exteriores. Este dispositivo transmite niveles y concentraciones a una plataforma FIWARE central. Esta plataforma central es en su origen nuestro ecosistema RESPIRA IoT medioambiental desplegado para la provincia de Badajoz. https://panstamp.github.io/respira_fiware/docs/es/INDEX.html

Incrustar

Vista básica que en formato tabla muestra solo parte de los datos estructurados. Para su consulta COMPLETA debe descargarse el recurso

_id recvTime fiwareServicePath entityType entityId TimeInstant TimeInstant_md NO2 NO2_md PM10 PM10_md PM1.0 PM1.0_md PM2.5 PM2.5_md PM4.0 PM4.0_md humidity humidity_md temperature temperature_md typicalSize typicalSize_md
94806 2021-01-18T19:57:38 /envAirQualityRESPIRA3 RESPIRA RESPIRA:RESPIRA_807D3AF3AB0C 2021-01-18T19:57:38 None 0 None 58.89 None 54.93 None 58.49 None 58.82 None 26.41 None 8.19 None 0.63 None
94809 2021-01-18T20:08:15 /envAirQualityRESPIRA3 RESPIRA RESPIRA:RESPIRA_A4CF12755A8C 2021-01-18T20:08:14 None 35.8 None 1.88 None 1.78 None 1.88 None 1.88 None 52.27 None 18.27 None 0.52 None
94812 2021-01-18T20:13:20 /envAirQualityRESPIRA3 RESPIRA RESPIRA:RESPIRA_A4CF12758438 2021-01-18T20:13:20 None 63.97 None 22.46 None 21.19 None 22.43 None 22.45 None 74.11 None 6.97 None 0.55 None
94813 2021-01-18T20:14:46 /envAirQualityRESPIRA3 RESPIRA RESPIRA:RESPIRA_807D3AF39838 2021-01-18T20:14:46 None 0 None 19.37 None 18.32 None 19.37 None 19.37 None 82.7 None 7.79 None 0.56 None
94816 2021-01-18T20:24:11 /envAirQualityRESPIRA3 RESPIRA RESPIRA:RESPIRA_246F28179F74 2021-01-18T20:24:11 None 24.17 None 1.53 None 1.45 None 1.53 None 1.53 None 40.56 None 18.23 None 0.54 None
94819 2021-01-18T20:34:25 /envAirQualityRESPIRA3 RESPIRA RESPIRA:RESPIRA_240AC4A26E00 2021-01-18T20:34:25 None 52.5 None 72.83 None 68.81 None 72.8 None 72.82 None 84.34 None 6.13 None 0.56 None
94821 2021-01-18T20:37:33 /envAirQualityRESPIRA3 RESPIRA RESPIRA:RESPIRA_807D3AF39910 2021-01-18T20:37:33 None 14.22 None 29.42 None 27.71 None 29.36 None 29.41 None 41.66 None 16.17 None 0.61 None
94822 2021-01-18T20:42:14 /envAirQualityRESPIRA3 RESPIRA RESPIRA:RESPIRA_A4CF1272ACE4 2021-01-18T20:42:14 None 0 None 2.85 None 2.7 None 2.85 None 2.85 None 45.86 None 12.42 None 0.55 None
94823 2021-01-18T20:55:34 /envAirQualityRESPIRA3 RESPIRA RESPIRA:RESPIRA_30AEA4F1D164 2021-01-18T20:55:34 None 0 None 1.71 None 1.62 None 1.71 None 1.71 None 41.1 None 18.92 None 0.56 None
94824 2021-01-18T20:56:08 /envAirQualityRESPIRA3 RESPIRA RESPIRA:RESPIRA_A4CF12750498 2021-01-18T20:56:08 None 1.88 None 44.09 None 41.69 None 44.09 None 44.09 None 72.16 None 8.86 None 0.54 None
94826 2021-01-18T20:57:39 /envAirQualityRESPIRA3 RESPIRA RESPIRA:RESPIRA_807D3AF3AB0C 2021-01-18T20:57:38 None 0 None 34.04 None 32.19 None 34.04 None 34.04 None 0.23 None 6.72 None 0.6 None
94818 2021-01-18T20:29:53 /envAirQualityRESPIRA3 RESPIRA RESPIRA:RESPIRA_A4CF12752890 2021-01-18T20:29:53 None 67.44 None 86.09 None 80.99 None 85.87 None 86.05 None 63.61 None 11.52 None 0.55 None
94820 2021-01-18T20:36:57 /envAirQualityRESPIRA3 RESPIRA RESPIRA:RESPIRA_30AEA4F1B87C 2021-01-18T20:36:57 None 213.32 None 23.5 None 22.22 None 23.5 None 23.5 None 76.41 None 8.04 None 0.57 None
94825 2021-01-18T20:56:14 /envAirQualityRESPIRA3 RESPIRA RESPIRA:RESPIRA_A4CF1272B60C 2021-01-18T20:56:14 None 132.11 None 2.67 None 2.53 None 2.56 None 2.56 None 69.96 None 9.98 None 0.52 None
94827 2021-01-18T21:01:19 /envAirQualityRESPIRA3 RESPIRA RESPIRA:RESPIRA_A4CF127501F8 2021-01-18T21:01:19 None 41.39 None 16.89 None 15.98 None 16.89 None 16.89 None 65.78 None 8.66 None 0.56 None
94828 2021-01-18T21:01:26 /envAirQualityRESPIRA3 RESPIRA RESPIRA:RESPIRA_A4CF1275559C 2021-01-18T21:01:26 None 91.9 None 11.88 None 11.23 None 11.88 None 11.88 None 86.37 None 7.52 None 0.6 None
94829 2021-01-18T21:08:15 /envAirQualityRESPIRA3 RESPIRA RESPIRA:RESPIRA_A4CF12755A8C 2021-01-18T21:08:15 None 37.68 None 1.28 None 1.21 None 1.28 None 1.28 None 52.09 None 18.18 None 0.53 None
94830 2021-01-18T21:09:09 /envAirQualityRESPIRA3 RESPIRA RESPIRA:RESPIRA_807D3AF39F6C 2021-01-18T21:09:08 None 15.89 None 20.88 None 19.75 None 20.88 None 20.88 None 52.88 None 3.51 None 0.58 None
94831 2021-01-18T21:09:16 /envAirQualityRESPIRA3 RESPIRA RESPIRA:RESPIRA_807D3AF398EC 2021-01-18T21:09:16 None 37.68 None 4.66 None 4.41 None 4.66 None 4.66 None 68.21 None 9.48 None 0.59 None
94832 2021-01-18T21:13:20 /envAirQualityRESPIRA3 RESPIRA RESPIRA:RESPIRA_A4CF12758438 2021-01-18T21:13:20 None 65.85 None 23.88 None 22.58 None 23.88 None 23.88 None 77.6 None 5.87 None 0.57 None
94833 2021-01-18T21:14:47 /envAirQualityRESPIRA3 RESPIRA RESPIRA:RESPIRA_807D3AF39838 2021-01-18T21:14:47 None 0 None 25.57 None 24.18 None 25.57 None 25.57 None 84.73 None 7.18 None 0.56 None
94834 2021-01-18T21:16:59 /envAirQualityRESPIRA3 RESPIRA RESPIRA:RESPIRA_240AC4A3EBF8 2021-01-18T21:16:59 None 44.87 None 27.17 None 25.24 None 27.17 None 27.16 None 66.79 None 7.8 None 0.58 None
94835 2021-01-18T21:17:21 /envAirQualityRESPIRA3 RESPIRA RESPIRA:RESPIRA_A4CF12755D90 2021-01-18T21:17:21 None 24746.08 None 45.63 None 43.15 None 45.63 None 45.63 None 69.8 None 9.04 None 0.56 None
94836 2021-01-18T21:24:11 /envAirQualityRESPIRA3 RESPIRA RESPIRA:RESPIRA_246F28179F74 2021-01-18T21:24:11 None 26.05 None 1.48 None 1.4 None 1.48 None 1.48 None 40.57 None 18.27 None 0.51 None
94837 2021-01-18T21:25:24 /envAirQualityRESPIRA3 RESPIRA RESPIRA:RESPIRA_A4CF1275659C 2021-01-18T21:25:24 None 10.72 None 2.46 None 2.33 None 2.46 None 2.46 None 46.82 None 17 None 0.58 None
94838 2021-01-18T21:29:53 /envAirQualityRESPIRA3 RESPIRA RESPIRA:RESPIRA_A4CF12752890 2021-01-18T21:29:53 None 63.68 None 92.84 None 86.54 None 92.19 None 92.73 None 63.7 None 11.11 None 0.56 None
94839 2021-01-18T21:34:26 /envAirQualityRESPIRA3 RESPIRA RESPIRA:RESPIRA_240AC4A26E00 2021-01-18T21:34:25 None 56.26 None 49.28 None 46.1 None 49.09 None 49.26 None 83.33 None 5.9 None 0.59 None
94841 2021-01-18T21:37:33 /envAirQualityRESPIRA3 RESPIRA RESPIRA:RESPIRA_807D3AF39910 2021-01-18T21:37:33 None 12.34 None 39.07 None 36.82 None 39 None 39.06 None 42.19 None 15.74 None 0.58 None
94842 2021-01-18T21:42:15 /envAirQualityRESPIRA3 RESPIRA RESPIRA:RESPIRA_A4CF1272ACE4 2021-01-18T21:42:15 None 0 None 4.86 None 4.6 None 4.86 None 4.86 None 49.19 None 11.99 None 0.54 None
94849 2021-01-18T22:08:15 /envAirQualityRESPIRA3 RESPIRA RESPIRA:RESPIRA_A4CF12755A8C 2021-01-18T22:08:15 None 39.56 None 1.14 None 1.08 None 1.14 None 1.14 None 51.96 None 18.11 None 0.49 None
94851 2021-01-18T22:09:17 /envAirQualityRESPIRA3 RESPIRA RESPIRA:RESPIRA_807D3AF398EC 2021-01-18T22:09:16 None 182.55 None 8.96 None 8.47 None 8.96 None 8.96 None 77.35 None 8.38 None 0.52 None
94853 2021-01-18T22:14:47 /envAirQualityRESPIRA3 RESPIRA RESPIRA:RESPIRA_807D3AF39838 2021-01-18T22:14:47 None 0 None 23.27 None 22 None 23.27 None 23.27 None 86.75 None 6.65 None 0.57 None
94854 2021-01-18T22:16:59 /envAirQualityRESPIRA3 RESPIRA RESPIRA:RESPIRA_240AC4A3EBF8 2021-01-18T22:16:59 None 39.22 None 25.86 None 24.05 None 25.86 None 25.86 None 70.84 None 6.63 None 0.58 None
94840 2021-01-18T21:36:57 /envAirQualityRESPIRA3 RESPIRA RESPIRA:RESPIRA_30AEA4F1B87C 2021-01-18T21:36:57 None 70.33 None 19.71 None 18.63 None 19.7 None 19.7 None 78.39 None 7.04 None 0.56 None
94843 2021-01-18T21:56:09 /envAirQualityRESPIRA3 RESPIRA RESPIRA:RESPIRA_A4CF12750498 2021-01-18T21:56:08 None 0 None 38.27 None 36.19 None 38.27 None 38.27 None 78.18 None 7.6 None 0.55 None
94844 2021-01-18T21:56:14 /envAirQualityRESPIRA3 RESPIRA RESPIRA:RESPIRA_A4CF1272B60C 2021-01-18T21:56:14 None 128.34 None 3.94 None 3.74 None 3.78 None 3.78 None 72.67 None 9.24 None 0.55 None
94845 2021-01-18T21:56:27 /envAirQualityRESPIRA3 RESPIRA RESPIRA:RESPIRA_30AEA4F1D164 2021-01-18T21:56:27 None 41.7 None 3.5 None 3.31 None 3.5 None 3.5 None 41.03 None 18.65 None 0.63 None
94846 2021-01-18T21:57:39 /envAirQualityRESPIRA3 RESPIRA RESPIRA:RESPIRA_807D3AF3AB0C 2021-01-18T21:57:39 None 0 None 33.84 None 32 None 33.84 None 33.84 None 1.61 None 5.48 None 0.66 None
94847 2021-01-18T22:01:20 /envAirQualityRESPIRA3 RESPIRA RESPIRA:RESPIRA_A4CF127501F8 2021-01-18T22:01:19 None 47.03 None 20.55 None 19.43 None 20.55 None 20.55 None 67.08 None 8.1 None 0.57 None
94848 2021-01-18T22:01:26 /envAirQualityRESPIRA3 RESPIRA RESPIRA:RESPIRA_A4CF1275559C 2021-01-18T22:01:26 None 99.43 None 7.53 None 7.12 None 7.53 None 7.53 None 84.3 None 7.12 None 0.54 None
94850 2021-01-18T22:09:09 /envAirQualityRESPIRA3 RESPIRA RESPIRA:RESPIRA_807D3AF39F6C 2021-01-18T22:09:09 None 435.44 None 23.36 None 22.08 None 23.35 None 23.36 None 50.76 None 3.02 None 0.58 None
94852 2021-01-18T22:13:21 /envAirQualityRESPIRA3 RESPIRA RESPIRA:RESPIRA_A4CF12758438 2021-01-18T22:13:21 None 65.85 None 20.46 None 19.35 None 20.46 None 20.46 None 77.45 None 6.09 None 0.6 None
94855 2021-01-18T22:17:21 /envAirQualityRESPIRA3 RESPIRA RESPIRA:RESPIRA_A4CF12755D90 2021-01-18T22:17:21 None 24746.08 None 24.9 None 23.55 None 24.9 None 24.9 None 69.81 None 8.86 None 0.57 None
94857 2021-01-18T22:25:24 /envAirQualityRESPIRA3 RESPIRA RESPIRA:RESPIRA_A4CF1275659C 2021-01-18T22:25:24 None 12.6 None 4.53 None 4.29 None 4.53 None 4.53 None 46.36 None 17.09 None 0.53 None
94930 2021-01-19T02:08:46 /envAirQualityRESPIRA3 RESPIRA RESPIRA:RESPIRA_30AEA4F1D164 2021-01-19T02:08:46 None 11.6 None 1.54 None 1.45 None 1.54 None 1.54 None 41.13 None 18.63 None 0.52 None
94856 2021-01-18T22:24:12 /envAirQualityRESPIRA3 RESPIRA RESPIRA:RESPIRA_246F28179F74 2021-01-18T22:24:11 None 26.05 None 1.4 None 1.33 None 1.4 None 1.4 None 40.57 None 18.3 None 0.51 None
94858 2021-01-18T22:29:53 /envAirQualityRESPIRA3 RESPIRA RESPIRA:RESPIRA_A4CF12752890 2021-01-18T22:29:53 None 61.8 None 76.48 None 72.12 None 76.38 None 76.46 None 65 None 10.35 None 0.59 None
94859 2021-01-18T22:34:26 /envAirQualityRESPIRA3 RESPIRA RESPIRA:RESPIRA_240AC4A26E00 2021-01-18T22:34:26 None 39.33 None 78.87 None 74.31 None 78.72 None 78.84 None 89.54 None 4.54 None 0.57 None
94860 2021-01-18T22:36:58 /envAirQualityRESPIRA3 RESPIRA RESPIRA:RESPIRA_30AEA4F1B87C 2021-01-18T22:36:57 None 6.36 None 26.26 None 24.82 None 26.26 None 26.26 None 81.44 None 6.34 None 0.57 None
94861 2021-01-18T22:37:34 /envAirQualityRESPIRA3 RESPIRA RESPIRA:RESPIRA_807D3AF39910 2021-01-18T22:37:34 None 12.34 None 31.96 None 30.2 None 31.95 None 31.95 None 42.72 None 15.42 None 0.57 None
94862 2021-01-18T22:38:13 /envAirQualityRESPIRA3 RESPIRA RESPIRA:RESPIRA_807D3AF39910 2021-01-18T22:38:13 None 0 None 26.45 None 25.01 None 26.45 None 26.45 None 42.97 None 15.34 None 0.44 None
94863 2021-01-18T22:42:15 /envAirQualityRESPIRA3 RESPIRA RESPIRA:RESPIRA_A4CF1272ACE4 2021-01-18T22:42:15 None 0 None 4.44 None 4.2 None 4.44 None 4.44 None 49.28 None 11.3 None 0.58 None
94864 2021-01-18T22:56:09 /envAirQualityRESPIRA3 RESPIRA RESPIRA:RESPIRA_A4CF12750498 2021-01-18T22:56:09 None 0 None 34.44 None 32.57 None 34.44 None 34.44 None 78.29 None 7.15 None 0.55 None
94865 2021-01-18T22:56:14 /envAirQualityRESPIRA3 RESPIRA RESPIRA:RESPIRA_A4CF1272B60C 2021-01-18T22:56:14 None 128.34 None 6.34 None 6.02 None 6.08 None 6.1 None 74.36 None 8.75 None 0.54 None
94868 2021-01-18T23:01:26 /envAirQualityRESPIRA3 RESPIRA RESPIRA:RESPIRA_A4CF1275559C 2021-01-18T23:01:26 None 110.72 None 4.91 None 4.65 None 4.91 None 4.91 None 69.93 None 8.48 None 0.56 None
94869 2021-01-18T23:02:11 /envAirQualityRESPIRA3 RESPIRA RESPIRA:RESPIRA_30AEA4F1D164 2021-01-18T23:02:11 None 7.83 None 0.83 None 0.78 None 0.83 None 0.83 None 40.85 None 18.88 None 0.34 None
94866 2021-01-18T22:57:39 /envAirQualityRESPIRA3 RESPIRA RESPIRA:RESPIRA_807D3AF3AB0C 2021-01-18T22:57:39 None 0 None 42.51 None 40.19 None 42.5 None 42.5 None 2.07 None 5.18 None 0.62 None
94867 2021-01-18T23:01:20 /envAirQualityRESPIRA3 RESPIRA RESPIRA:RESPIRA_A4CF127501F8 2021-01-18T23:01:20 None 50.8 None 19.44 None 18.38 None 19.44 None 19.44 None 67.64 None 7.81 None 0.55 None
94872 2021-01-18T23:09:17 /envAirQualityRESPIRA3 RESPIRA RESPIRA:RESPIRA_807D3AF398EC 2021-01-18T23:09:17 None 312.36 None 10.93 None 10.33 None 10.92 None 10.93 None 82.88 None 7.58 None 0.59 None
94879 2021-01-18T23:29:53 /envAirQualityRESPIRA3 RESPIRA RESPIRA:RESPIRA_A4CF12752890 2021-01-18T23:29:53 None 50.51 None 75.67 None 71.41 None 75.59 None 75.66 None 61.82 None 10.91 None 0.55 None
94881 2021-01-18T23:36:58 /envAirQualityRESPIRA3 RESPIRA RESPIRA:RESPIRA_30AEA4F1B87C 2021-01-18T23:36:58 None 8.24 None 21.94 None 20.74 None 21.94 None 21.94 None 80.9 None 6.05 None 0.58 None
94883 2021-01-18T23:42:15 /envAirQualityRESPIRA3 RESPIRA RESPIRA:RESPIRA_A4CF1272ACE4 2021-01-18T23:42:15 None 0 None 4.27 None 4.04 None 4.27 None 4.27 None 53.05 None 11.16 None 0.52 None
94884 2021-01-18T23:56:09 /envAirQualityRESPIRA3 RESPIRA RESPIRA:RESPIRA_A4CF12750498 2021-01-18T23:56:09 None 0 None 25.71 None 24.31 None 25.71 None 25.71 None 80.72 None 6.3 None 0.56 None
94886 2021-01-18T23:57:40 /envAirQualityRESPIRA3 RESPIRA RESPIRA:RESPIRA_807D3AF3AB0C 2021-01-18T23:57:39 None 0 None 42.48 None 40.13 None 42.46 None 42.47 None 2.43 None 4.49 None 0.62 None
94890 2021-01-19T00:08:16 /envAirQualityRESPIRA3 RESPIRA RESPIRA:RESPIRA_A4CF12755A8C 2021-01-19T00:08:16 None 41.44 None 3.94 None 3.72 None 3.93 None 3.93 None 51.7 None 18.17 None 0.54 None
94891 2021-01-19T00:09:09 /envAirQualityRESPIRA3 RESPIRA RESPIRA:RESPIRA_807D3AF39F6C 2021-01-19T00:09:09 None 2446.66 None 23.98 None 22.68 None 23.98 None 23.98 None 47.52 None 2.55 None 0.54 None
94892 2021-01-19T00:09:18 /envAirQualityRESPIRA3 RESPIRA RESPIRA:RESPIRA_807D3AF398EC 2021-01-19T00:09:18 None 148.68 None 12.5 None 11.81 None 12.5 None 12.5 None 83.08 None 7.31 None 0.62 None
94870 2021-01-18T23:08:16 /envAirQualityRESPIRA3 RESPIRA RESPIRA:RESPIRA_A4CF12755A8C 2021-01-18T23:08:15 None 37.68 None 3.14 None 2.97 None 3.14 None 3.14 None 51.75 None 18.15 None 0.54 None
94871 2021-01-18T23:09:09 /envAirQualityRESPIRA3 RESPIRA RESPIRA:RESPIRA_807D3AF39F6C 2021-01-18T23:09:09 None 888.86 None 25.6 None 24.2 None 25.6 None 25.6 None 51.56 None 2.21 None 0.57 None
94873 2021-01-18T23:13:21 /envAirQualityRESPIRA3 RESPIRA RESPIRA:RESPIRA_A4CF12758438 2021-01-18T23:13:21 None 71.49 None 18.16 None 17.18 None 18.16 None 18.16 None 79.71 None 5.5 None 0.57 None
94874 2021-01-18T23:14:47 /envAirQualityRESPIRA3 RESPIRA RESPIRA:RESPIRA_807D3AF39838 2021-01-18T23:14:47 None 0 None 18.72 None 17.7 None 18.72 None 18.72 None 87.85 None 6.29 None 0.58 None
94875 2021-01-18T23:17:00 /envAirQualityRESPIRA3 RESPIRA RESPIRA:RESPIRA_240AC4A3EBF8 2021-01-18T23:16:59 None 35.46 None 26.2 None 24.78 None 26.2 None 26.2 None 71.92 None 6.32 None 0.61 None
94876 2021-01-18T23:17:22 /envAirQualityRESPIRA3 RESPIRA RESPIRA:RESPIRA_A4CF12755D90 2021-01-18T23:17:21 None 24746.08 None 24.47 None 23.14 None 24.47 None 24.47 None 70.64 None 8.42 None 0.58 None
94877 2021-01-18T23:24:12 /envAirQualityRESPIRA3 RESPIRA RESPIRA:RESPIRA_246F28179F74 2021-01-18T23:24:12 None 26.05 None 1.35 None 1.28 None 1.35 None 1.35 None 40.54 None 18.34 None 0.5 None
94878 2021-01-18T23:25:24 /envAirQualityRESPIRA3 RESPIRA RESPIRA:RESPIRA_A4CF1275659C 2021-01-18T23:25:24 None 12.6 None 4.82 None 4.56 None 4.82 None 4.82 None 46.13 None 17.11 None 0.59 None
94880 2021-01-18T23:34:26 /envAirQualityRESPIRA3 RESPIRA RESPIRA:RESPIRA_240AC4A26E00 2021-01-18T23:34:26 None 44.97 None 55.91 None 52.11 None 55.31 None 55.52 None 90.01 None 3.99 None 0.58 None
94882 2021-01-18T23:38:16 /envAirQualityRESPIRA3 RESPIRA RESPIRA:RESPIRA_807D3AF39910 2021-01-18T23:38:16 None 14.22 None 27.48 None 25.99 None 27.48 None 27.48 None 43.04 None 15.15 None 0.55 None
94885 2021-01-18T23:56:15 /envAirQualityRESPIRA3 RESPIRA RESPIRA:RESPIRA_A4CF1272B60C 2021-01-18T23:56:15 None 122.7 None 7.14 None 6.78 None 6.85 None 6.86 None 78.05 None 7.63 None 0.53 None
94887 2021-01-19T00:01:21 /envAirQualityRESPIRA3 RESPIRA RESPIRA:RESPIRA_A4CF127501F8 2021-01-19T00:01:21 None 52.68 None 15.53 None 14.69 None 15.53 None 15.53 None 69.59 None 7.08 None 0.56 None
94888 2021-01-19T00:01:26 /envAirQualityRESPIRA3 RESPIRA RESPIRA:RESPIRA_A4CF1275559C 2021-01-19T00:01:26 None 99.43 None 4.33 None 4.1 None 4.33 None 4.33 None 75.1 None 6.73 None 0.58 None
94889 2021-01-19T00:03:05 /envAirQualityRESPIRA3 RESPIRA RESPIRA:RESPIRA_30AEA4F1D164 2021-01-19T00:03:04 None 15.36 None 10.57 None 4.47 None 7.69 None 10.09 None 41.49 None 18.58 None 0.83 None
94893 2021-01-19T00:13:21 /envAirQualityRESPIRA3 RESPIRA RESPIRA:RESPIRA_A4CF12758438 2021-01-19T00:13:21 None 67.73 None 14.43 None 13.64 None 14.43 None 14.43 None 82.12 None 4.96 None 0.62 None
94896 2021-01-19T00:17:22 /envAirQualityRESPIRA3 RESPIRA RESPIRA:RESPIRA_A4CF12755D90 2021-01-19T00:17:22 None 24746.08 None 26.14 None 24.72 None 26.14 None 26.14 None 69.99 None 7.84 None 0.56 None
94898 2021-01-19T00:25:25 /envAirQualityRESPIRA3 RESPIRA RESPIRA:RESPIRA_A4CF1275659C 2021-01-19T00:25:24 None 10.72 None 4.54 None 4.29 None 4.54 None 4.54 None 45.77 None 17.17 None 0.56 None
94901 2021-01-19T00:36:58 /envAirQualityRESPIRA3 RESPIRA RESPIRA:RESPIRA_30AEA4F1B87C 2021-01-19T00:36:58 None 166.28 None 12.68 None 11.96 None 12.66 None 12.68 None 80.8 None 5.78 None 0.64 None
94902 2021-01-19T00:38:16 /envAirQualityRESPIRA3 RESPIRA RESPIRA:RESPIRA_807D3AF39910 2021-01-19T00:38:16 None 16.1 None 20.81 None 19.68 None 20.81 None 20.81 None 43.2 None 14.89 None 0.58 None
94903 2021-01-19T00:42:16 /envAirQualityRESPIRA3 RESPIRA RESPIRA:RESPIRA_A4CF1272ACE4 2021-01-19T00:42:15 None 0 None 4.05 None 3.83 None 4.05 None 4.05 None 52.4 None 11 None 0.61 None
94904 2021-01-19T00:56:09 /envAirQualityRESPIRA3 RESPIRA RESPIRA:RESPIRA_A4CF12750498 2021-01-19T00:56:09 None 0 None 20.34 None 19.23 None 20.34 None 20.34 None 82.77 None 5.62 None 0.57 None
94905 2021-01-19T00:56:15 /envAirQualityRESPIRA3 RESPIRA RESPIRA:RESPIRA_A4CF1272B60C 2021-01-19T00:56:15 None 118.94 None 7.03 None 6.67 None 6.74 None 6.75 None 80.63 None 6.84 None 0.55 None
94894 2021-01-19T00:14:48 /envAirQualityRESPIRA3 RESPIRA RESPIRA:RESPIRA_807D3AF39838 2021-01-19T00:14:48 None 0 None 17.7 None 16.73 None 17.69 None 17.69 None 87.78 None 6.03 None 0.62 None
94895 2021-01-19T00:17:00 /envAirQualityRESPIRA3 RESPIRA RESPIRA:RESPIRA_240AC4A3EBF8 2021-01-19T00:17:00 None 31.7 None 21.62 None 20.43 None 21.61 None 21.62 None 71.71 None 6.05 None 0.59 None
94897 2021-01-19T00:24:12 /envAirQualityRESPIRA3 RESPIRA RESPIRA:RESPIRA_246F28179F74 2021-01-19T00:24:12 None 20.41 None 1.34 None 1.27 None 1.34 None 1.34 None 40.52 None 18.36 None 0.53 None
94899 2021-01-19T00:29:54 /envAirQualityRESPIRA3 RESPIRA RESPIRA:RESPIRA_A4CF12752890 2021-01-19T00:29:53 None 52.39 None 47.3 None 44.71 None 47.29 None 47.3 None 63.81 None 10.35 None 0.6 None
94900 2021-01-19T00:34:27 /envAirQualityRESPIRA3 RESPIRA RESPIRA:RESPIRA_240AC4A26E00 2021-01-19T00:34:27 None 60.02 None 18.96 None 17.73 None 18.91 None 18.95 None 85.59 None 4.27 None 0.6 None
94906 2021-01-19T00:57:40 /envAirQualityRESPIRA3 RESPIRA RESPIRA:RESPIRA_807D3AF3AB0C 2021-01-19T00:57:40 None 0 None 32.74 None 30.96 None 32.74 None 32.74 None 2.73 None 3.61 None 0.62 None
94908 2021-01-19T01:01:27 /envAirQualityRESPIRA3 RESPIRA RESPIRA:RESPIRA_A4CF1275559C 2021-01-19T01:01:27 None 97.55 None 4.09 None 3.86 None 4.09 None 4.09 None 79.34 None 5.88 None 0.59 None
94909 2021-01-19T01:08:16 /envAirQualityRESPIRA3 RESPIRA RESPIRA:RESPIRA_A4CF12755A8C 2021-01-19T01:08:16 None 43.32 None 3.84 None 3.63 None 3.84 None 3.84 None 51.74 None 18.2 None 0.52 None
94910 2021-01-19T01:08:40 /envAirQualityRESPIRA3 RESPIRA RESPIRA:RESPIRA_30AEA4F1D164 2021-01-19T01:08:40 None 15.36 None 2.22 None 2.1 None 2.22 None 2.22 None 41.05 None 18.85 None 0.37 None
94911 2021-01-19T01:09:10 /envAirQualityRESPIRA3 RESPIRA RESPIRA:RESPIRA_807D3AF39F6C 2021-01-19T01:09:10 None 4207.65 None 21.94 None 20.75 None 21.94 None 21.94 None 49.82 None 3.49 None 0.59 None
94913 2021-01-19T01:13:21 /envAirQualityRESPIRA3 RESPIRA RESPIRA:RESPIRA_A4CF12758438 2021-01-19T01:13:21 None 63.97 None 14 None 13.24 None 14 None 14 None 81.35 None 5.24 None 0.55 None

Información adicional

Campo Valor
Formato CSV
Licencia Creative Commons Attribution
formatCSV
package id87b2f4b5-49dc-42a7-8d26-d9da0832060f
revision id2ebfafb0-1434-4340-b71d-cb5296aec012
stateactive